createdAt,value
2018-04-29T00:00:26.766Z,12.86
2018-04-29T00:01:26.686Z,12.82
2018-04-29T00:02:26.611Z,12.82
2018-04-29T00:03:26.535Z,12.84
2018-04-29T00:04:26.466Z,12.89
2018-04-29T00:05:26.383Z,12.89
2018-04-29T00:06:26.318Z,12.84
2018-04-29T00:07:26.232Z,12.82
2018-04-29T00:08:26.163Z,12.84
2018-04-29T00:09:26.083Z,12.85
2018-04-29T00:10:26.016Z,12.81
2018-04-29T00:11:25.938Z,12.74
2018-04-29T00:12:25.868Z,12.91
2018-04-29T00:13:25.786Z,12.82
2018-04-29T00:14:25.714Z,12.81
2018-04-29T00:15:25.640Z,12.85
2018-04-29T00:16:25.571Z,12.82
2018-04-29T00:17:25.486Z,12.85
2018-04-29T00:18:25.419Z,12.85
2018-04-29T00:19:25.331Z,12.84
2018-04-29T00:20:26.267Z,12.91
2018-04-29T00:21:25.186Z,12.96
2018-04-29T00:22:25.135Z,13.06
2018-04-29T00:23:25.042Z,13.04
2018-04-29T00:24:24.972Z,13.15
2018-04-29T00:25:24.888Z,13.18
2018-04-29T00:26:24.819Z,13.15
2018-04-29T00:27:24.737Z,13.18
2018-04-29T00:28:24.671Z,13.25
2018-04-29T00:29:24.589Z,13.28
2018-04-29T00:30:24.523Z,13.36
2018-04-29T00:31:24.439Z,13.43
2018-04-29T00:32:24.374Z,13.41
2018-04-29T00:33:24.288Z,13.41
2018-04-29T00:34:24.230Z,13.44
2018-04-29T00:35:24.136Z,13.48
2018-04-29T00:36:24.073Z,13.50
2018-04-29T00:37:23.987Z,13.53
2018-04-29T00:38:23.920Z,13.47
2018-04-29T00:39:23.842Z,13.48
2018-04-29T00:40:23.775Z,13.58
2018-04-29T00:41:23.692Z,13.59
2018-04-29T00:42:23.627Z,13.59
2018-04-29T00:43:23.544Z,13.63
2018-04-29T00:44:23.478Z,13.58
2018-04-29T00:45:23.395Z,13.65
2018-04-29T00:46:23.326Z,13.62
2018-04-29T00:47:23.250Z,13.55
2018-04-29T00:48:23.177Z,13.62
2018-04-29T00:49:23.098Z,13.58
2018-04-29T00:50:23.030Z,13.62
2018-04-29T00:51:22.947Z,13.71
2018-04-29T00:52:22.883Z,13.66
2018-04-29T00:53:22.794Z,13.61
2018-04-29T00:54:22.730Z,13.74
2018-04-29T00:55:22.648Z,13.74
2018-04-29T00:56:22.590Z,13.63
2018-04-29T00:57:22.499Z,13.63
2018-04-29T00:58:22.438Z,13.74
2018-04-29T00:59:22.354Z,13.68
2018-04-29T01:00:22.286Z,13.76
2018-04-29T01:01:22.203Z,13.74
2018-04-29T01:02:22.135Z,13.81
2018-04-29T01:03:22.054Z,13.81
2018-04-29T01:04:21.991Z,13.87
2018-04-29T01:05:21.910Z,13.94
2018-04-29T01:06:21.840Z,13.87
2018-04-29T01:07:21.758Z,13.95
2018-04-29T01:08:22.685Z,13.86
2018-04-29T01:09:21.663Z,13.98
2018-04-29T01:10:21.539Z,13.92
2018-04-29T01:12:54.052Z,13.94
2018-04-29T01:13:53.951Z,13.96
2018-04-29T01:14:53.887Z,13.98
2018-04-29T01:15:53.805Z,13.95
2018-04-29T01:16:53.736Z,13.91
2018-04-29T01:17:53.651Z,14.02
2018-04-29T01:18:53.599Z,13.99
2018-04-29T01:19:53.510Z,14.02
2018-04-29T01:20:54.440Z,14.03
2018-04-29T01:21:53.356Z,14.05
2018-04-29T01:22:53.297Z,14.07
2018-04-29T01:23:53.210Z,14.02
2018-04-29T01:24:53.141Z,14.05
2018-04-29T01:25:53.058Z,14.05
2018-04-29T01:26:53.002Z,14.09
2018-04-29T01:27:52.909Z,14.09
2018-04-29T01:28:52.846Z,14.13
2018-04-29T01:29:52.759Z,14.14
2018-04-29T01:30:52.694Z,14.03
2018-04-29T01:31:52.619Z,14.14
2018-04-29T01:32:52.546Z,14.14
2018-04-29T01:33:52.463Z,14.20
2018-04-29T01:34:52.401Z,14.24
2018-04-29T01:35:52.316Z,14.20
2018-04-29T01:36:52.251Z,14.23
2018-04-29T01:37:52.167Z,14.14
2018-04-29T01:38:52.098Z,14.24
2018-04-29T01:39:52.020Z,14.28
2018-04-29T01:40:51.952Z,14.27
2018-04-29T01:41:51.870Z,14.28
2018-04-29T01:42:51.808Z,14.34
2018-04-29T01:43:51.721Z,14.29
2018-04-29T01:44:51.653Z,14.34
2018-04-29T01:45:51.573Z,14.34
2018-04-29T01:46:51.501Z,14.38
2018-04-29T01:47:51.422Z,14.38
2018-04-29T01:48:51.358Z,14.32
2018-04-29T01:49:51.274Z,14.41
2018-04-29T01:50:51.207Z,14.23
2018-04-29T01:51:51.124Z,14.34
2018-04-29T01:52:51.063Z,14.29
2018-04-29T01:53:50.977Z,14.32
2018-04-29T01:54:50.910Z,14.36
2018-04-29T01:55:50.830Z,14.38
2018-04-29T01:56:50.763Z,14.38
2018-04-29T01:57:50.682Z,14.36
2018-04-29T01:58:50.613Z,14.34
2018-04-29T01:59:50.563Z,14.32
2018-04-29T02:00:50.462Z,14.39
2018-04-29T02:01:50.386Z,14.34
2018-04-29T02:02:50.328Z,14.38
2018-04-29T02:03:50.235Z,14.36
2018-04-29T02:04:50.166Z,14.35
2018-04-29T02:05:50.097Z,14.46
2018-04-29T02:06:50.021Z,14.34
2018-04-29T02:07:49.940Z,14.35
2018-04-29T02:08:49.873Z,14.34
2018-04-29T02:09:49.789Z,14.42
2018-04-29T02:10:49.727Z,14.36
2018-04-29T02:11:49.643Z,14.47
2018-04-29T02:12:49.575Z,14.42
2018-04-29T02:13:49.494Z,14.41
2018-04-29T02:14:49.427Z,14.50
2018-04-29T02:15:49.348Z,14.50
2018-04-29T02:16:49.275Z,14.50
2018-04-29T02:17:49.193Z,14.49
2018-04-29T02:18:49.128Z,14.44
2018-04-29T02:19:49.049Z,14.41
2018-04-29T02:20:48.981Z,14.46
2018-04-29T02:21:48.900Z,14.38
2018-04-29T02:22:48.832Z,14.38
2018-04-29T02:23:48.752Z,14.39
2018-04-29T02:24:48.687Z,14.44
2018-04-29T02:25:48.607Z,14.36
2018-04-29T02:26:48.544Z,14.46
2018-04-29T02:27:48.455Z,14.47
2018-04-29T02:28:48.390Z,14.34
2018-04-29T02:29:48.310Z,14.38
2018-04-29T02:30:48.241Z,14.42
2018-04-29T02:31:48.160Z,14.41
2018-04-29T02:32:48.097Z,14.39
2018-04-29T02:33:48.014Z,14.38
2018-04-29T02:34:47.942Z,14.35
2018-04-29T02:35:47.869Z,14.42
2018-04-29T02:36:47.795Z,14.35
2018-04-29T03:15:31.525Z,13.62
2018-04-29T03:16:31.441Z,13.65
2018-04-29T03:17:31.357Z,13.58
2018-04-29T03:18:31.359Z,13.50
2018-04-29T03:19:31.202Z,13.53
2018-04-29T03:20:31.167Z,13.44
2018-04-29T03:21:31.057Z,13.45
2018-04-29T03:22:31.077Z,13.41
2018-04-29T03:23:30.903Z,13.47
2018-04-29T03:24:30.887Z,13.38
2018-04-29T03:25:30.752Z,13.41
2018-04-29T03:26:30.698Z,13.38
2018-04-29T03:27:30.603Z,13.33
2018-04-29T03:28:30.535Z,13.40
2018-04-29T03:29:30.457Z,13.36
2018-04-29T03:30:30.417Z,13.37
2018-04-29T03:31:30.377Z,13.36
2018-04-29T03:32:30.326Z,13.25
2018-04-29T03:33:30.153Z,13.24
2018-04-29T03:34:30.099Z,13.18
2018-04-29T03:35:30.008Z,13.18
2018-04-29T03:36:30.046Z,13.14
2018-04-29T03:37:29.855Z,13.09
2018-04-29T03:38:29.787Z,13.04
2018-04-29T03:39:29.705Z,13.03
2018-04-29T03:40:29.664Z,13.00
2018-04-29T03:41:29.554Z,13.02
2018-04-29T03:42:29.572Z,13.06
2018-04-29T03:43:29.406Z,13.06
2018-04-29T03:44:29.381Z,12.99
2018-04-29T03:45:29.254Z,12.99
2018-04-29T03:46:29.290Z,13.09
2018-04-29T03:47:29.105Z,12.99
2018-04-29T03:48:29.099Z,13.00
2018-04-29T03:49:28.964Z,12.91
2018-04-29T03:50:28.907Z,12.82
2018-04-29T03:51:28.809Z,12.86
2018-04-29T03:52:31.722Z,12.77
2018-04-29T03:53:28.747Z,12.78
2018-04-29T03:54:28.627Z,12.78
2018-04-29T03:55:28.509Z,12.74
2018-04-29T03:56:28.540Z,12.82
2018-04-29T03:57:28.361Z,12.73
2018-04-29T03:58:28.346Z,12.77
2018-04-29T03:59:28.211Z,12.70
2018-04-29T04:00:28.155Z,12.73
2018-04-29T04:01:28.059Z,12.63
2018-04-29T04:02:28.091Z,12.70
2018-04-29T04:03:27.908Z,12.60
2018-04-29T04:04:27.875Z,12.74
2018-04-29T04:05:27.755Z,12.64
2018-04-29T04:06:27.790Z,12.71
2018-04-29T04:07:27.611Z,12.71
2018-04-29T04:08:27.592Z,12.67
2018-04-29T04:09:27.464Z,12.59
2018-04-29T04:10:27.393Z,12.55
2018-04-29T04:11:27.312Z,12.55
2018-04-29T04:12:27.313Z,12.61
2018-04-29T04:13:27.164Z,12.56
2018-04-29T04:14:27.119Z,12.56
2018-04-29T04:15:27.013Z,12.53
2018-04-29T04:16:27.032Z,12.59
2018-04-29T04:17:26.864Z,12.48
2018-04-29T04:18:26.799Z,12.48
2018-04-29T04:19:26.714Z,12.28
2018-04-29T04:20:26.749Z,12.24
2018-04-29T04:21:26.564Z,12.21
2018-04-29T04:22:26.563Z,12.23
2018-04-29T04:23:26.412Z,12.13
2018-04-29T04:24:26.344Z,12.11
2018-04-29T04:25:26.337Z,12.08
2018-04-29T04:26:26.282Z,12.09
2018-04-29T04:27:26.112Z,12.11
2018-04-29T04:28:26.089Z,12.18
2018-04-29T04:29:25.960Z,12.16
2018-04-29T04:30:26.000Z,12.13
2018-04-29T04:31:25.810Z,12.19
2018-04-29T04:32:25.808Z,12.15
2018-04-29T04:33:25.661Z,12.18
2018-04-29T04:34:25.615Z,12.24
2018-04-29T04:35:25.518Z,12.21
2018-04-29T04:36:25.525Z,12.11
2018-04-29T04:37:25.361Z,12.09
2018-04-29T04:38:25.344Z,12.06
2018-04-29T04:39:25.213Z,12.02
2018-04-29T04:40:25.249Z,11.94
2018-04-29T04:41:25.061Z,11.76
2018-04-29T04:42:25.055Z,11.89
2018-04-29T04:43:24.916Z,11.81
2018-04-29T04:44:24.867Z,11.79
2018-04-29T04:45:24.764Z,11.86
2018-04-29T04:46:24.777Z,11.79
2018-04-29T04:47:24.612Z,11.79
2018-04-29T04:48:24.582Z,11.81
2018-04-29T04:49:24.461Z,11.74
2018-04-29T04:50:24.495Z,11.74
2018-04-29T04:51:24.310Z,11.87
2018-04-29T04:52:24.304Z,11.79
2018-04-29T04:53:24.161Z,11.86
2018-04-29T04:54:24.117Z,11.94
2018-04-29T04:55:24.009Z,12.00
2018-04-29T04:56:24.021Z,12.05
2018-04-29T04:57:23.859Z,12.11
2018-04-29T04:58:23.835Z,12.11
2018-04-29T04:59:23.706Z,12.19
2018-04-29T05:00:23.741Z,12.16
2018-04-29T05:01:23.557Z,12.34
2018-04-29T05:02:23.552Z,12.23
2018-04-29T05:03:23.407Z,12.23
2018-04-29T05:04:23.357Z,12.30
2018-04-29T05:05:23.268Z,12.31
2018-04-29T05:06:23.268Z,12.27
2018-04-29T05:07:23.189Z,12.31
2018-04-29T05:08:23.036Z,12.34
2018-04-29T05:09:22.957Z,12.31
2018-04-29T05:10:22.994Z,12.42
2018-04-29T05:11:22.804Z,12.48
2018-04-29T05:12:22.801Z,12.49
2018-04-29T05:13:22.657Z,12.51
2018-04-29T05:14:22.606Z,12.61
2018-04-29T05:15:22.508Z,12.53
2018-04-29T05:16:22.515Z,12.67
2018-04-29T05:17:22.354Z,12.59
2018-04-29T05:18:22.323Z,12.66
2018-04-29T05:19:22.203Z,12.70
2018-04-29T05:20:22.235Z,12.69
2018-04-29T05:21:22.049Z,12.82
2018-04-29T05:22:22.043Z,12.84
2018-04-29T05:23:21.903Z,12.82
2018-04-29T05:24:21.851Z,12.85
2018-04-29T05:25:21.754Z,12.91
2018-04-29T05:26:21.768Z,12.91
2018-04-29T05:27:21.603Z,12.97
2018-04-29T05:28:21.576Z,13.03
2018-04-29T05:29:21.478Z,13.00
2018-04-29T05:30:21.382Z,13.06
2018-04-29T05:31:21.304Z,13.03
2018-04-29T05:32:21.288Z,13.00
2018-04-29T05:33:21.164Z,13.00
2018-04-29T05:34:21.090Z,13.09
2018-04-29T05:35:21.059Z,13.11
2018-04-29T05:36:21.011Z,13.06
2018-04-29T05:37:20.856Z,13.17
2018-04-29T05:38:20.818Z,13.15
2018-04-29T05:39:20.740Z,13.07
2018-04-29T05:40:20.732Z,13.17
2018-04-29T05:41:20.560Z,13.15
2018-04-29T05:42:20.537Z,13.18
2018-04-29T05:43:20.401Z,13.11
2018-04-29T05:44:20.349Z,13.25
2018-04-29T05:45:20.254Z,13.28
2018-04-29T05:46:20.260Z,13.33
2018-04-29T05:47:20.105Z,13.33
2018-04-29T05:48:20.065Z,13.40
2018-04-29T05:49:19.952Z,13.37
2018-04-29T05:50:19.977Z,13.44
2018-04-29T05:51:19.807Z,13.43
2018-04-29T05:52:19.786Z,13.50
2018-04-29T05:53:19.651Z,13.47
2018-04-29T05:54:19.696Z,13.48
2018-04-29T05:55:19.511Z,13.61
2018-04-29T05:56:19.506Z,13.56
2018-04-29T05:57:19.359Z,13.59
2018-04-29T05:58:20.346Z,13.65
2018-04-29T05:59:19.207Z,13.68
2018-04-29T06:00:19.287Z,13.71
2018-04-29T06:01:19.060Z,13.65
2018-04-29T06:02:24.975Z,13.76
2018-04-29T06:03:18.912Z,13.76
2018-04-29T06:04:18.950Z,13.74
2018-04-29T06:05:18.760Z,13.83
2018-04-29T06:06:18.807Z,13.86
2018-04-29T06:07:18.617Z,13.84
2018-04-29T06:08:18.564Z,13.95
2018-04-29T06:09:18.465Z,13.92
2018-04-29T06:10:18.473Z,13.91
2018-04-29T06:11:18.315Z,13.91
2018-04-29T06:12:18.283Z,14.03
2018-04-29T06:13:18.161Z,14.05
2018-04-29T06:14:18.195Z,14.09
2018-04-29T06:15:18.018Z,14.02
2018-04-29T06:16:18.002Z,14.16
2018-04-29T06:17:17.867Z,14.16
2018-04-29T06:18:17.809Z,14.19
2018-04-29T06:19:17.737Z,14.17
2018-04-29T06:20:17.716Z,14.23
2018-04-29T06:21:17.568Z,14.17
2018-04-29T06:22:17.529Z,14.16
2018-04-29T06:23:17.420Z,14.27
2018-04-29T06:24:17.437Z,14.31
2018-04-29T06:25:17.269Z,14.28
2018-04-29T06:26:17.251Z,14.39
2018-04-29T06:27:17.126Z,14.41
2018-04-29T06:28:17.153Z,14.36
2018-04-29T06:29:16.976Z,14.28
2018-04-29T06:30:16.969Z,14.28
2018-04-29T06:31:16.825Z,14.36
2018-04-29T06:32:16.775Z,14.36
2018-04-29T06:33:16.676Z,14.35
2018-04-29T06:34:16.695Z,14.31
2018-04-29T06:35:16.526Z,14.42
2018-04-29T06:36:16.600Z,14.47
2018-04-29T06:37:16.379Z,14.38
2018-04-29T06:38:16.405Z,14.50
2018-04-29T06:39:16.230Z,14.49
2018-04-29T06:40:16.211Z,14.57
2018-04-29T06:41:16.097Z,14.60
2018-04-29T06:42:16.021Z,14.71
2018-04-29T06:43:15.937Z,14.65
2018-04-29T06:44:15.941Z,14.69
2018-04-29T06:45:15.784Z,14.71
2018-04-29T06:46:15.740Z,14.72
2018-04-29T06:47:15.634Z,14.79
2018-04-29T06:48:15.654Z,14.79
2018-04-29T06:49:15.488Z,14.84
2018-04-29T06:50:15.463Z,14.87
2018-04-29T06:51:15.343Z,14.94
2018-04-29T06:52:15.377Z,15.01
2018-04-29T06:53:15.192Z,15.13
2018-04-29T06:54:15.182Z,15.21
2018-04-29T06:55:15.042Z,15.26
2018-04-29T06:56:14.991Z,15.31
2018-04-29T06:57:14.897Z,15.46
2018-04-29T06:58:14.903Z,15.52
2018-04-29T06:59:14.749Z,15.49
2018-04-29T07:00:14.711Z,15.59
2018-04-29T07:01:14.598Z,15.60
2018-04-29T07:02:14.621Z,15.75
2018-04-29T07:03:14.456Z,15.81
2018-04-29T07:04:14.429Z,15.94
2018-04-29T07:05:14.307Z,16.03
2018-04-29T07:06:14.341Z,16.10
2018-04-29T07:07:14.159Z,16.16
2018-04-29T07:08:14.227Z,16.26
2018-04-29T07:09:14.012Z,16.34
2018-04-29T07:10:13.958Z,16.47
2018-04-29T07:11:13.866Z,16.52
2018-04-29T07:12:13.872Z,16.47
2018-04-29T07:13:13.717Z,16.65
2018-04-29T07:14:13.769Z,16.73
2018-04-29T07:15:13.573Z,16.84
2018-04-29T07:16:13.589Z,16.85
2018-04-29T07:17:13.425Z,17.03
2018-04-29T07:18:13.399Z,17.02
2018-04-29T07:19:13.278Z,17.18
2018-04-29T07:20:13.309Z,17.21
2018-04-29T07:21:13.133Z,17.26
2018-04-29T07:22:13.116Z,17.50
2018-04-29T07:23:12.988Z,17.57
2018-04-29T07:24:13.030Z,17.66
2018-04-29T07:25:12.840Z,17.74
2018-04-29T07:26:12.833Z,17.89
2018-04-29T07:27:12.695Z,17.98
2018-04-29T07:28:12.645Z,17.98
2018-04-29T07:29:12.553Z,18.03
2018-04-29T07:30:12.559Z,18.14
2018-04-29T07:31:12.404Z,18.25
2018-04-29T07:32:12.365Z,18.43
2018-04-29T07:33:12.256Z,18.58
2018-04-29T07:34:12.337Z,18.64
2018-04-29T07:35:12.115Z,18.77
2018-04-29T07:36:12.089Z,18.94
2018-04-29T07:37:11.977Z,19.02
2018-04-29T07:38:11.998Z,19.18
2018-04-29T07:39:11.828Z,19.33
2018-04-29T07:40:11.851Z,19.36
2018-04-29T07:41:11.680Z,19.51
2018-04-29T07:42:11.716Z,19.54
2018-04-29T07:43:11.541Z,19.71
2018-04-29T07:44:11.527Z,19.78
2018-04-29T07:45:11.395Z,19.94
2018-04-29T07:46:11.436Z,19.93
2018-04-29T07:47:11.255Z,20.01
2018-04-29T07:48:11.244Z,20.15
2018-04-29T07:49:11.110Z,20.19
2018-04-29T07:50:11.155Z,20.20
2018-04-29T07:51:10.972Z,20.43
2018-04-29T07:52:11.055Z,20.51
2018-04-29T07:53:10.830Z,20.51
2018-04-29T07:54:10.773Z,20.51
2018-04-29T07:55:10.689Z,20.57
2018-04-29T07:56:10.681Z,20.51
2018-04-29T07:57:10.547Z,20.54
2018-04-29T07:58:10.491Z,20.62
2018-04-29T07:59:10.399Z,20.71
2018-04-29T08:00:10.406Z,20.64
2018-04-29T08:01:10.265Z,20.83
2018-04-29T08:02:10.212Z,20.89
2018-04-29T08:03:10.118Z,20.86
2018-04-29T08:04:10.121Z,20.99
2018-04-29T08:05:09.982Z,21.02
2018-04-29T08:06:09.934Z,21.08
2018-04-29T08:07:09.836Z,21.04
2018-04-29T08:08:09.842Z,21.14
2018-04-29T08:09:09.698Z,21.29
2018-04-29T08:10:09.651Z,21.33
2018-04-29T08:11:09.557Z,21.44
2018-04-29T08:12:09.564Z,21.59
2018-04-29T08:13:09.415Z,21.67
2018-04-29T08:14:09.373Z,21.75
2018-04-29T08:15:09.298Z,21.74
2018-04-29T08:16:09.280Z,21.84
2018-04-29T08:17:09.141Z,21.85
2018-04-29T08:18:09.089Z,21.86
2018-04-29T08:19:08.998Z,21.91
2018-04-29T08:20:08.940Z,21.95
2018-04-29T08:21:08.864Z,21.81
2018-04-29T08:22:08.808Z,21.59
2018-04-29T08:23:08.726Z,21.72
2018-04-29T08:24:08.659Z,21.84
2018-04-29T08:25:08.580Z,21.79
2018-04-29T08:26:08.524Z,21.86
2018-04-29T08:27:08.447Z,21.85
2018-04-29T08:28:08.385Z,21.72
2018-04-29T08:29:08.308Z,21.84
2018-04-29T08:30:08.286Z,21.89
2018-04-29T08:31:08.180Z,22.04
2018-04-29T08:32:08.109Z,22.04
2018-04-29T08:33:08.030Z,22.16
2018-04-29T08:34:07.973Z,22.23
2018-04-29T08:35:07.892Z,22.28
2018-04-29T08:36:07.877Z,22.37
2018-04-29T08:37:07.755Z,22.35
2018-04-29T08:38:07.695Z,22.42
2018-04-29T08:39:07.620Z,22.44
2018-04-29T08:40:07.562Z,22.39
2018-04-29T08:41:07.482Z,22.41
2018-04-29T08:42:07.423Z,22.42
2018-04-29T08:43:07.345Z,22.57
2018-04-29T08:44:07.285Z,22.63
2018-04-29T08:45:07.212Z,22.77
2018-04-29T08:46:07.150Z,22.90
2018-04-29T08:47:07.077Z,22.93
2018-04-29T08:48:07.014Z,22.86
2018-04-29T08:49:06.940Z,22.92
2018-04-29T08:50:06.886Z,22.92
2018-04-29T08:51:06.800Z,22.96
2018-04-29T08:52:06.743Z,22.81
2018-04-29T08:53:06.664Z,22.77
2018-04-29T08:54:06.605Z,22.78
2018-04-29T08:55:06.530Z,22.81
2018-04-29T08:56:06.524Z,22.75
2018-04-29T08:57:06.392Z,22.75
2018-04-29T08:58:06.330Z,22.77
2018-04-29T08:59:06.256Z,22.74
2018-04-29T09:00:06.197Z,22.71
2018-04-29T09:01:06.121Z,22.75
2018-04-29T09:02:06.064Z,22.90
2018-04-29T09:03:05.992Z,22.99
2018-04-29T09:04:05.925Z,23.04
2018-04-29T09:05:05.856Z,23.07
2018-04-29T09:06:05.792Z,23.05
2018-04-29T09:07:05.715Z,23.12
2018-04-29T09:08:05.657Z,23.11
2018-04-29T09:09:05.582Z,23.26
2018-04-29T09:10:05.519Z,23.31
2018-04-29T09:11:05.447Z,23.14
2018-04-29T09:12:05.387Z,23.23
2018-04-29T09:13:05.310Z,23.37
2018-04-29T09:14:05.250Z,23.35
2018-04-29T09:15:05.176Z,23.45
2018-04-29T09:16:05.117Z,23.55
2018-04-29T09:17:05.041Z,23.50
2018-04-29T09:18:04.988Z,23.52
2018-04-29T09:19:04.909Z,23.42
2018-04-29T09:20:04.851Z,23.56
2018-04-29T09:21:04.774Z,23.60
2018-04-29T09:22:04.714Z,23.72
2018-04-29T09:23:04.639Z,23.78
2018-04-29T09:24:04.581Z,23.87
2018-04-29T09:25:04.506Z,24.01
2018-04-29T09:26:04.448Z,24.10
2018-04-29T09:27:04.376Z,24.22
2018-04-29T09:28:04.312Z,24.19
2018-04-29T09:29:04.239Z,24.19
2018-04-29T09:30:04.180Z,24.15
2018-04-29T09:31:04.109Z,24.26
2018-04-29T09:32:04.050Z,24.12
2018-04-29T09:33:03.972Z,24.19
2018-04-29T09:34:03.915Z,24.27
2018-04-29T09:35:03.839Z,24.27
2018-04-29T09:36:03.773Z,24.23
2018-04-29T09:37:03.715Z,24.19
2018-04-29T09:38:03.641Z,24.11
2018-04-29T09:39:03.587Z,24.10
2018-04-29T09:40:03.506Z,24.04
2018-04-29T09:41:03.450Z,23.95
2018-04-29T09:42:03.374Z,23.85
2018-04-29T09:43:03.317Z,23.72
2018-04-29T09:44:03.244Z,23.60
2018-04-29T09:45:03.183Z,23.60
2018-04-29T09:46:03.112Z,23.68
2018-04-29T09:47:03.053Z,23.82
2018-04-29T09:48:02.977Z,23.98
2018-04-29T09:49:02.917Z,24.01
2018-04-29T09:50:02.856Z,24.11
2018-04-29T09:51:02.793Z,24.25
2018-04-29T09:52:02.713Z,24.22
2018-04-29T09:53:02.679Z,24.32
2018-04-29T09:54:02.583Z,24.29
2018-04-29T09:55:02.528Z,24.35
2018-04-29T09:56:02.448Z,24.57
2018-04-29T09:57:02.391Z,24.54
2018-04-29T09:58:02.317Z,24.54
2018-04-29T09:59:02.260Z,24.42
2018-04-29T10:00:02.191Z,24.53
2018-04-29T10:01:02.159Z,24.45
2018-04-29T10:02:02.056Z,24.29
2018-04-29T10:03:01.991Z,24.22
2018-04-29T10:04:01.926Z,24.23
2018-04-29T10:05:01.868Z,24.23
2018-04-29T10:06:01.794Z,24.25
2018-04-29T10:07:01.737Z,24.22
2018-04-29T10:08:01.656Z,24.32
2018-04-29T10:09:01.608Z,24.48
2018-04-29T10:10:01.531Z,24.63
2018-04-29T10:11:01.472Z,24.64
2018-04-29T10:12:01.400Z,24.59
2018-04-29T10:13:01.335Z,24.85
2018-04-29T10:14:01.271Z,24.95
2018-04-29T10:15:01.206Z,25.10
2018-04-29T10:16:01.136Z,25.09
2018-04-29T10:17:01.080Z,25.15
2018-04-29T10:18:01.005Z,25.12
2018-04-29T10:19:00.950Z,25.10
2018-04-29T10:20:00.873Z,25.12
2018-04-29T10:21:00.817Z,25.17
2018-04-29T10:22:00.758Z,25.20
2018-04-29T10:23:00.689Z,25.22
2018-04-29T10:24:00.612Z,25.20
2018-04-29T10:25:00.554Z,25.15
2018-04-29T10:26:00.481Z,25.16
2018-04-29T10:27:00.425Z,25.22
2018-04-29T10:28:00.352Z,25.31
2018-04-29T10:29:00.296Z,25.28
2018-04-29T10:30:00.219Z,25.32
2018-04-29T10:31:00.163Z,25.32
2018-04-29T10:32:00.091Z,25.22
2018-04-29T10:33:00.041Z,25.20
2018-04-29T10:33:59.955Z,25.31
2018-04-29T10:34:59.903Z,25.22
2018-04-29T10:35:59.832Z,25.31
2018-04-29T10:36:59.779Z,25.30
2018-04-29T10:37:59.703Z,25.28
2018-04-29T10:39:00.643Z,25.47
2018-04-29T10:39:59.573Z,25.47
2018-04-29T10:40:59.528Z,25.55
2018-04-29T10:41:59.443Z,25.62
2018-04-29T10:42:59.385Z,25.65
2018-04-29T10:43:59.310Z,25.68
2018-04-29T10:44:59.252Z,25.82
2018-04-29T10:45:59.182Z,25.90
2018-04-29T10:46:59.129Z,25.71
2018-04-29T10:47:59.053Z,25.67
2018-04-29T10:48:58.999Z,25.45
2018-04-29T10:49:58.923Z,25.27
2018-04-29T10:50:58.865Z,25.15
2018-04-29T10:51:58.794Z,25.28
2018-04-29T10:52:58.734Z,25.09
2018-04-29T10:53:58.665Z,25.12
2018-04-29T10:54:58.607Z,25.22
2018-04-29T10:55:58.534Z,25.23
2018-04-29T10:56:58.479Z,25.22
2018-04-29T10:57:58.412Z,25.35
2018-04-29T10:58:58.348Z,25.28
2018-04-29T10:59:58.277Z,25.40
2018-04-29T11:00:58.221Z,25.47
2018-04-29T11:01:58.148Z,25.65
2018-04-29T11:02:58.088Z,25.75
2018-04-29T11:03:58.019Z,25.75
2018-04-29T11:04:57.964Z,25.77
2018-04-29T11:05:57.892Z,25.97
2018-04-29T11:06:57.833Z,25.92
2018-04-29T11:07:57.763Z,26.08
2018-04-29T11:08:57.704Z,26.18
2018-04-29T11:09:57.631Z,26.27
2018-04-29T11:10:57.581Z,26.27
2018-04-29T11:11:57.510Z,26.35
2018-04-29T11:12:57.447Z,26.43
2018-04-29T11:13:57.376Z,26.50
2018-04-29T11:14:57.318Z,26.45
2018-04-29T11:15:57.247Z,26.34
2018-04-29T11:16:57.188Z,26.28
2018-04-29T11:17:57.118Z,26.24
2018-04-29T11:18:57.063Z,26.24
2018-04-29T11:19:56.997Z,26.38
2018-04-29T11:20:56.934Z,26.38
2018-04-29T11:21:56.861Z,26.47
2018-04-29T11:22:56.806Z,26.49
2018-04-29T11:23:56.734Z,26.64
2018-04-29T11:24:56.678Z,26.60
2018-04-29T11:25:56.610Z,26.50
2018-04-29T11:26:56.551Z,26.52
2018-04-29T11:27:56.480Z,26.53
2018-04-29T11:28:56.419Z,26.61
2018-04-29T11:29:56.359Z,26.57
2018-04-29T11:30:56.294Z,26.61
2018-04-29T11:31:56.223Z,26.62
2018-04-29T11:32:56.163Z,26.72
2018-04-29T11:33:56.126Z,26.69
2018-04-29T11:34:56.043Z,26.84
2018-04-29T11:35:55.971Z,26.79
2018-04-29T11:36:55.915Z,26.82
2018-04-29T11:37:55.841Z,26.86
2018-04-29T11:38:55.790Z,26.77
2018-04-29T11:39:55.712Z,26.98
2018-04-29T11:40:55.658Z,26.84
2018-04-29T11:41:55.585Z,26.84
2018-04-29T11:42:55.533Z,26.98
2018-04-29T11:43:55.461Z,27.16
2018-04-29T11:44:55.404Z,27.08
2018-04-29T11:45:55.367Z,27.26
2018-04-29T11:46:55.277Z,27.36
2018-04-29T11:47:55.206Z,27.27
2018-04-29T11:48:55.150Z,27.34
2018-04-29T11:49:55.085Z,27.38
2018-04-29T11:50:55.025Z,27.36
2018-04-29T11:51:54.958Z,27.21
2018-04-29T11:52:54.895Z,27.35
2018-04-29T11:53:54.828Z,27.36
2018-04-29T11:54:54.773Z,27.51
2018-04-29T11:55:54.700Z,27.54
2018-04-29T11:56:54.641Z,27.64
2018-04-29T11:57:54.573Z,27.69
2018-04-29T11:58:54.522Z,27.80
2018-04-29T11:59:54.451Z,27.84
2018-04-29T12:00:54.393Z,27.87
2018-04-29T12:01:54.347Z,27.84
2018-04-29T12:02:54.274Z,27.76
2018-04-29T12:03:54.195Z,27.74
2018-04-29T12:04:54.141Z,27.69
2018-04-29T12:05:54.069Z,27.38
2018-04-29T12:06:54.016Z,27.45
2018-04-29T12:07:53.945Z,27.41
2018-04-29T12:08:53.890Z,27.44
2018-04-29T12:09:53.875Z,27.44
2018-04-29T12:10:53.764Z,27.49
2018-04-29T12:11:53.694Z,27.51
2018-04-29T12:12:53.635Z,27.35
2018-04-29T12:13:53.567Z,27.35
2018-04-29T12:14:53.514Z,27.19
2018-04-29T12:15:53.449Z,27.21
2018-04-29T12:16:53.391Z,27.17
2018-04-29T12:17:53.316Z,27.19
2018-04-29T12:18:53.265Z,27.27
2018-04-29T12:19:53.194Z,27.24
2018-04-29T12:20:53.156Z,27.21
2018-04-29T12:21:53.067Z,27.26
2018-04-29T12:22:53.012Z,27.31
2018-04-29T12:23:52.940Z,27.34
2018-04-29T12:24:52.884Z,27.39
2018-04-29T12:25:52.814Z,27.49
2018-04-29T12:26:52.763Z,27.67
2018-04-29T12:27:52.690Z,27.70
2018-04-29T12:28:52.633Z,27.76
2018-04-29T12:29:52.565Z,27.80
2018-04-29T12:30:52.511Z,27.82
2018-04-29T12:31:52.440Z,27.87
2018-04-29T12:32:52.383Z,27.91
2018-04-29T12:33:52.317Z,27.89
2018-04-29T12:34:52.261Z,27.83
2018-04-29T12:35:52.194Z,27.80
2018-04-29T12:36:52.140Z,27.94
2018-04-29T12:37:52.064Z,27.87
2018-04-29T12:38:52.009Z,27.82
2018-04-29T12:39:52.011Z,27.94
2018-04-29T12:40:51.882Z,28.11
2018-04-29T12:41:51.814Z,28.22
2018-04-29T12:42:51.761Z,28.17
2018-04-29T12:43:51.689Z,28.13
2018-04-29T12:44:51.637Z,28.16
2018-04-29T12:45:51.573Z,28.24
2018-04-29T12:46:51.511Z,28.25
2018-04-29T12:47:51.440Z,28.20
2018-04-29T12:48:51.385Z,28.20
2018-04-29T12:49:51.314Z,28.17
2018-04-29T12:50:51.259Z,27.98
2018-04-29T12:51:51.191Z,27.89
2018-04-29T12:52:51.134Z,27.89
2018-04-29T12:53:51.069Z,27.94
2018-04-29T12:54:51.011Z,27.94
2018-04-29T12:55:50.941Z,28.02
2018-04-29T12:56:50.891Z,28.22
2018-04-29T12:57:50.818Z,28.24
2018-04-29T12:58:50.763Z,28.19
2018-04-29T12:59:50.692Z,28.17
2018-04-29T13:00:50.641Z,28.20
2018-04-29T13:01:50.567Z,28.24
2018-04-29T13:02:50.521Z,28.06
2018-04-29T13:03:50.444Z,27.83
2018-04-29T13:04:50.390Z,27.72
2018-04-29T13:05:50.319Z,27.84
2018-04-29T13:06:50.327Z,27.79
2018-04-29T13:07:50.205Z,27.87
2018-04-29T13:08:50.143Z,27.94
2018-04-29T13:09:50.071Z,28.09
2018-04-29T13:10:50.019Z,27.92
2018-04-29T13:11:49.946Z,27.99
2018-04-29T13:12:49.891Z,27.92
2018-04-29T13:13:49.820Z,27.89
2018-04-29T13:14:49.765Z,27.89
2018-04-29T13:15:49.700Z,27.88
2018-04-29T13:16:49.645Z,27.98
2018-04-29T13:17:49.574Z,28.13
2018-04-29T13:18:49.515Z,28.19
2018-04-29T13:19:49.461Z,28.36
2018-04-29T13:20:49.386Z,28.46
2018-04-29T13:21:49.407Z,28.56
2018-04-29T13:22:49.264Z,28.69
2018-04-29T13:23:49.211Z,28.81
2018-04-29T13:24:49.143Z,28.86
2018-04-29T13:25:49.084Z,28.63
2018-04-29T13:26:49.014Z,28.49
2018-04-29T13:27:48.969Z,28.24
2018-04-29T13:28:48.890Z,27.97
2018-04-29T13:29:48.836Z,27.67
2018-04-29T13:30:48.773Z,27.64